sensor_id;sensor_type;location;lat;lon;timestamp;temperature;humidity
24207;DHT22;12351;52.284;9.160;2023-05-07T00:01:10;11.00;99.90
24207;DHT22;12351;52.284;9.160;2023-05-07T00:03:57;11.00;99.90
24207;DHT22;12351;52.284;9.160;2023-05-07T00:06:46;10.80;99.90
24207;DHT22;12351;52.284;9.160;2023-05-07T00:09:35;10.80;99.90
24207;DHT22;12351;52.284;9.160;2023-05-07T00:12:23;10.70;99.90
24207;DHT22;12351;52.284;9.160;2023-05-07T00:15:12;10.60;99.90
24207;DHT22;12351;52.284;9.160;2023-05-07T00:18:02;10.70;99.90
24207;DHT22;12351;52.284;9.160;2023-05-07T00:20:50;10.70;99.90
24207;DHT22;12351;52.284;9.160;2023-05-07T00:23:39;10.50;99.90
24207;DHT22;12351;52.284;9.160;2023-05-07T00:26:27;10.60;99.90
24207;DHT22;12351;52.284;9.160;2023-05-07T00:29:14;10.50;99.90
24207;DHT22;12351;52.284;9.160;2023-05-07T00:32:03;10.50;99.90
24207;DHT22;12351;52.284;9.160;2023-05-07T00:34:51;10.50;99.90
24207;DHT22;12351;52.284;9.160;2023-05-07T00:37:38;10.50;99.90
24207;DHT22;12351;52.284;9.160;2023-05-07T00:40:27;10.50;99.90
24207;DHT22;12351;52.284;9.160;2023-05-07T00:43:16;10.40;99.90
24207;DHT22;12351;52.284;9.160;2023-05-07T00:46:04;10.40;99.90
24207;DHT22;12351;52.284;9.160;2023-05-07T00:48:53;10.50;99.90
24207;DHT22;12351;52.284;9.160;2023-05-07T00:51:42;10.50;99.90
24207;DHT22;12351;52.284;9.160;2023-05-07T00:54:29;10.60;99.90
24207;DHT22;12351;52.284;9.160;2023-05-07T00:57:20;10.50;99.90
24207;DHT22;12351;52.284;9.160;2023-05-07T01:00:10;10.50;99.90
24207;DHT22;12351;52.284;9.160;2023-05-07T01:02:59;10.40;99.90
24207;DHT22;12351;52.284;9.160;2023-05-07T01:05:50;10.50;99.90
24207;DHT22;12351;52.284;9.160;2023-05-07T01:08:39;10.30;99.90
24207;DHT22;12351;52.284;9.160;2023-05-07T01:11:28;10.40;99.90
24207;DHT22;12351;52.284;9.160;2023-05-07T01:14:16;10.40;99.90
24207;DHT22;12351;52.284;9.160;2023-05-07T01:17:05;10.40;99.90
24207;DHT22;12351;52.284;9.160;2023-05-07T01:19:53;10.50;99.90
24207;DHT22;12351;52.284;9.160;2023-05-07T01:22:41;10.40;99.90
24207;DHT22;12351;52.284;9.160;2023-05-07T01:25:30;10.50;99.90
24207;DHT22;12351;52.284;9.160;2023-05-07T01:28:18;10.40;99.90
24207;DHT22;12351;52.284;9.160;2023-05-07T01:31:06;10.30;99.90
24207;DHT22;12351;52.284;9.160;2023-05-07T01:33:54;10.30;99.90
24207;DHT22;12351;52.284;9.160;2023-05-07T01:36:43;10.40;99.90
24207;DHT22;12351;52.284;9.160;2023-05-07T01:39:33;10.40;99.90
24207;DHT22;12351;52.284;9.160;2023-05-07T01:42:21;10.50;99.90
24207;DHT22;12351;52.284;9.160;2023-05-07T01:45:09;10.50;99.90
24207;DHT22;12351;52.284;9.160;2023-05-07T01:48:00;10.50;99.90
24207;DHT22;12351;52.284;9.160;2023-05-07T01:50:47;10.30;99.90
24207;DHT22;12351;52.284;9.160;2023-05-07T01:53:37;10.20;99.90
24207;DHT22;12351;52.284;9.160;2023-05-07T01:56:26;10.30;99.90
24207;DHT22;12351;52.284;9.160;2023-05-07T01:59:14;10.40;99.90
24207;DHT22;12351;52.284;9.160;2023-05-07T02:02:03;10.30;99.90
24207;DHT22;12351;52.284;9.160;2023-05-07T02:04:52;10.30;99.90
24207;DHT22;12351;52.284;9.160;2023-05-07T02:07:39;10.20;99.90
24207;DHT22;12351;52.284;9.160;2023-05-07T02:10:28;10.10;99.90
24207;DHT22;12351;52.284;9.160;2023-05-07T02:13:16;10.20;99.90
24207;DHT22;12351;52.284;9.160;2023-05-07T02:16:04;10.20;99.90
24207;DHT22;12351;52.284;9.160;2023-05-07T02:18:52;10.10;99.90
24207;DHT22;12351;52.284;9.160;2023-05-07T02:21:41;10.10;99.90
24207;DHT22;12351;52.284;9.160;2023-05-07T02:24:29;10.10;99.90
24207;DHT22;12351;52.284;9.160;2023-05-07T02:27:16;9.90;99.90
24207;DHT22;12351;52.284;9.160;2023-05-07T02:30:06;10.00;99.90
24207;DHT22;12351;52.284;9.160;2023-05-07T02:32:55;10.00;99.90
24207;DHT22;12351;52.284;9.160;2023-05-07T02:35:43;10.00;99.90
24207;DHT22;12351;52.284;9.160;2023-05-07T02:38:33;9.90;99.90
24207;DHT22;12351;52.284;9.160;2023-05-07T02:41:22;9.90;99.90
24207;DHT22;12351;52.284;9.160;2023-05-07T02:44:13;9.90;99.90
24207;DHT22;12351;52.284;9.160;2023-05-07T02:47:04;10.00;99.90
24207;DHT22;12351;52.284;9.160;2023-05-07T02:49:54;10.10;99.90
24207;DHT22;12351;52.284;9.160;2023-05-07T02:52:44;10.00;99.90
24207;DHT22;12351;52.284;9.160;2023-05-07T02:55:32;10.20;99.90
24207;DHT22;12351;52.284;9.160;2023-05-07T02:58:19;10.00;99.90
24207;DHT22;12351;52.284;9.160;2023-05-07T03:01:09;10.00;99.90
24207;DHT22;12351;52.284;9.160;2023-05-07T03:03:59;10.10;99.90
24207;DHT22;12351;52.284;9.160;2023-05-07T03:06:46;9.90;99.90
24207;DHT22;12351;52.284;9.160;2023-05-07T03:09:35;9.90;99.90
24207;DHT22;12351;52.284;9.160;2023-05-07T03:12:25;9.90;99.90
24207;DHT22;12351;52.284;9.160;2023-05-07T03:15:13;9.90;99.90
24207;DHT22;12351;52.284;9.160;2023-05-07T03:18:01;9.90;99.90
24207;DHT22;12351;52.284;9.160;2023-05-07T03:20:49;9.80;99.90
24207;DHT22;12351;52.284;9.160;2023-05-07T03:23:36;9.70;99.90
24207;DHT22;12351;52.284;9.160;2023-05-07T03:26:24;9.70;99.90
24207;DHT22;12351;52.284;9.160;2023-05-07T03:29:12;9.70;99.90
24207;DHT22;12351;52.284;9.160;2023-05-07T03:32:00;9.70;99.90
24207;DHT22;12351;52.284;9.160;2023-05-07T03:34:50;9.70;99.90
24207;DHT22;12351;52.284;9.160;2023-05-07T03:37:39;9.70;99.90
24207;DHT22;12351;52.284;9.160;2023-05-07T03:40:28;9.70;99.90
24207;DHT22;12351;52.284;9.160;2023-05-07T03:43:15;9.70;99.90
24207;DHT22;12351;52.284;9.160;2023-05-07T03:46:02;9.80;99.90
24207;DHT22;12351;52.284;9.160;2023-05-07T03:48:51;9.80;99.90
24207;DHT22;12351;52.284;9.160;2023-05-07T03:51:41;9.80;99.90
24207;DHT22;12351;52.284;9.160;2023-05-07T03:54:32;9.80;99.90
24207;DHT22;12351;52.284;9.160;2023-05-07T03:57:20;9.70;99.90
24207;DHT22;12351;52.284;9.160;2023-05-07T04:00:11;9.80;99.90
24207;DHT22;12351;52.284;9.160;2023-05-07T04:02:58;9.80;99.90
24207;DHT22;12351;52.284;9.160;2023-05-07T04:05:45;9.90;99.90
24207;DHT22;12351;52.284;9.160;2023-05-07T04:08:33;9.90;99.90
24207;DHT22;12351;52.284;9.160;2023-05-07T04:11:22;9.70;99.90
24207;DHT22;12351;52.284;9.160;2023-05-07T04:14:09;9.70;99.90
24207;DHT22;12351;52.284;9.160;2023-05-07T04:16:58;9.60;99.90
24207;DHT22;12351;52.284;9.160;2023-05-07T04:19:46;9.70;99.90
24207;DHT22;12351;52.284;9.160;2023-05-07T04:22:34;9.60;99.90
24207;DHT22;12351;52.284;9.160;2023-05-07T04:25:23;9.60;99.90
24207;DHT22;12351;52.284;9.160;2023-05-07T04:28:12;9.60;99.90
24207;DHT22;12351;52.284;9.160;2023-05-07T04:31:01;9.70;99.90
24207;DHT22;12351;52.284;9.160;2023-05-07T04:33:50;9.70;99.90
24207;DHT22;12351;52.284;9.160;2023-05-07T04:36:38;9.60;99.90
24207;DHT22;12351;52.284;9.160;2023-05-07T04:39:26;9.60;99.90
24207;DHT22;12351;52.284;9.160;2023-05-07T04:42:16;9.40;99.90
24207;DHT22;12351;52.284;9.160;2023-05-07T04:45:05;9.50;99.90
24207;DHT22;12351;52.284;9.160;2023-05-07T04:47:55;9.50;99.90
24207;DHT22;12351;52.284;9.160;2023-05-07T04:50:47;9.50;99.90
24207;DHT22;12351;52.284;9.160;2023-05-07T04:53:35;9.50;99.90
24207;DHT22;12351;52.284;9.160;2023-05-07T04:56:22;9.50;99.90
24207;DHT22;12351;52.284;9.160;2023-05-07T04:59:12;9.60;99.90
24207;DHT22;12351;52.284;9.160;2023-05-07T05:01:59;9.60;99.90
24207;DHT22;12351;52.284;9.160;2023-05-07T05:04:47;9.50;99.90
24207;DHT22;12351;52.284;9.160;2023-05-07T05:07:35;9.60;99.90
24207;DHT22;12351;52.284;9.160;2023-05-07T05:10:24;9.60;99.90
24207;DHT22;12351;52.284;9.160;2023-05-07T05:13:11;9.70;99.90
24207;DHT22;12351;52.284;9.160;2023-05-07T05:16:02;9.70;99.90
24207;DHT22;12351;52.284;9.160;2023-05-07T05:18:50;9.60;99.90
24207;DHT22;12351;52.284;9.160;2023-05-07T05:21:39;9.60;99.90
24207;DHT22;12351;52.284;9.160;2023-05-07T05:24:27;9.60;99.90
24207;DHT22;12351;52.284;9.160;2023-05-07T05:27:16;9.70;99.90
24207;DHT22;12351;52.284;9.160;2023-05-07T05:30:07;9.80;99.90
24207;DHT22;12351;52.284;9.160;2023-05-07T05:32:55;9.70;99.90
24207;DHT22;12351;52.284;9.160;2023-05-07T05:35:47;9.80;99.90
24207;DHT22;12351;52.284;9.160;2023-05-07T05:38:37;9.80;99.90
24207;DHT22;12351;52.284;9.160;2023-05-07T05:41:24;9.60;99.90
24207;DHT22;12351;52.284;9.160;2023-05-07T05:44:14;9.60;99.90
24207;DHT22;12351;52.284;9.160;2023-05-07T05:47:02;9.60;99.90
24207;DHT22;12351;52.284;9.160;2023-05-07T05:49:51;9.70;99.90
24207;DHT22;12351;52.284;9.160;2023-05-07T05:52:38;9.60;99.90
24207;DHT22;12351;52.284;9.160;2023-05-07T05:55:28;9.70;99.90
24207;DHT22;12351;52.284;9.160;2023-05-07T05:58:16;9.60;99.90
24207;DHT22;12351;52.284;9.160;2023-05-07T06:01:04;9.70;99.90
24207;DHT22;12351;52.284;9.160;2023-05-07T06:03:51;9.70;99.90
24207;DHT22;12351;52.284;9.160;2023-05-07T06:06:39;9.70;99.90
24207;DHT22;12351;52.284;9.160;2023-05-07T06:09:30;9.80;99.90
24207;DHT22;12351;52.284;9.160;2023-05-07T06:12:17;9.90;99.90
24207;DHT22;12351;52.284;9.160;2023-05-07T06:15:05;10.00;99.90
24207;DHT22;12351;52.284;9.160;2023-05-07T06:17:53;9.90;99.90
24207;DHT22;12351;52.284;9.160;2023-05-07T06:20:43;9.80;99.90
24207;DHT22;12351;52.284;9.160;2023-05-07T06:23:31;9.80;99.90
24207;DHT22;12351;52.284;9.160;2023-05-07T06:26:20;9.90;99.90
24207;DHT22;12351;52.284;9.160;2023-05-07T06:29:07;9.90;99.90
24207;DHT22;12351;52.284;9.160;2023-05-07T06:31:55;9.80;99.90
24207;DHT22;12351;52.284;9.160;2023-05-07T06:34:44;9.80;99.90
24207;DHT22;12351;52.284;9.160;2023-05-07T06:37:33;9.70;99.90
24207;DHT22;12351;52.284;9.160;2023-05-07T06:40:21;9.70;99.90
24207;DHT22;12351;52.284;9.160;2023-05-07T06:43:13;9.80;99.90
24207;DHT22;12351;52.284;9.160;2023-05-07T06:46:05;9.80;99.90
24207;DHT22;12351;52.284;9.160;2023-05-07T06:48:54;9.70;99.90
24207;DHT22;12351;52.284;9.160;2023-05-07T06:51:45;9.80;99.90
24207;DHT22;12351;52.284;9.160;2023-05-07T06:54:37;9.90;99.90
24207;DHT22;12351;52.284;9.160;2023-05-07T06:57:26;9.70;99.90
24207;DHT22;12351;52.284;9.160;2023-05-07T07:00:18;9.80;99.90
24207;DHT22;12351;52.284;9.160;2023-05-07T07:03:10;9.80;99.90
24207;DHT22;12351;52.284;9.160;2023-05-07T07:06:00;9.80;99.90
24207;DHT22;12351;52.284;9.160;2023-05-07T07:08:51;9.80;99.90
24207;DHT22;12351;52.284;9.160;2023-05-07T07:11:43;9.80;99.90
24207;DHT22;12351;52.284;9.160;2023-05-07T07:14:32;9.80;99.90
24207;DHT22;12351;52.284;9.160;2023-05-07T07:17:23;9.90;99.90
24207;DHT22;12351;52.284;9.160;2023-05-07T07:20:10;9.90;99.90
24207;DHT22;12351;52.284;9.160;2023-05-07T07:22:58;10.00;99.90
24207;DHT22;12351;52.284;9.160;2023-05-07T07:25:46;9.90;99.90
24207;DHT22;12351;52.284;9.160;2023-05-07T07:28:34;9.80;99.90
24207;DHT22;12351;52.284;9.160;2023-05-07T07:31:22;9.80;99.90
24207;DHT22;12351;52.284;9.160;2023-05-07T07:34:10;9.70;99.90
24207;DHT22;12351;52.284;9.160;2023-05-07T07:36:58;9.70;99.90
24207;DHT22;12351;52.284;9.160;2023-05-07T07:39:47;9.70;99.90
24207;DHT22;12351;52.284;9.160;2023-05-07T07:42:35;9.70;99.90
24207;DHT22;12351;52.284;9.160;2023-05-07T07:45:26;9.70;99.90
24207;DHT22;12351;52.284;9.160;2023-05-07T07:48:15;9.70;99.90
24207;DHT22;12351;52.284;9.160;2023-05-07T07:53:58;9.70;99.90
24207;DHT22;12351;52.284;9.160;2023-05-07T07:56:48;9.60;99.90
24207;DHT22;12351;52.284;9.160;2023-05-07T07:59:37;9.70;99.90
24207;DHT22;12351;52.284;9.160;2023-05-07T08:02:25;9.80;99.90
24207;DHT22;12351;52.284;9.160;2023-05-07T08:05:14;9.80;99.90
24207;DHT22;12351;52.284;9.160;2023-05-07T08:08:04;9.90;99.90
24207;DHT22;12351;52.284;9.160;2023-05-07T08:10:51;9.90;99.90
24207;DHT22;12351;52.284;9.160;2023-05-07T08:13:40;10.00;99.90
24207;DHT22;12351;52.284;9.160;2023-05-07T08:16:29;10.00;99.90
24207;DHT22;12351;52.284;9.160;2023-05-07T08:19:18;10.00;99.90
24207;DHT22;12351;52.284;9.160;2023-05-07T08:22:07;10.00;99.90
24207;DHT22;12351;52.284;9.160;2023-05-07T08:24:57;10.10;99.90
24207;DHT22;12351;52.284;9.160;2023-05-07T08:27:45;10.10;99.90
24207;DHT22;12351;52.284;9.160;2023-05-07T08:30:32;10.10;99.90
24207;DHT22;12351;52.284;9.160;2023-05-07T08:33:21;10.10;99.90
24207;DHT22;12351;52.284;9.160;2023-05-07T08:36:10;10.10;99.90
24207;DHT22;12351;52.284;9.160;2023-05-07T08:38:58;10.20;99.90
24207;DHT22;12351;52.284;9.160;2023-05-07T08:41:49;10.10;99.90
24207;DHT22;12351;52.284;9.160;2023-05-07T08:44:38;10.20;99.90
24207;DHT22;12351;52.284;9.160;2023-05-07T08:47:29;10.20;99.90
24207;DHT22;12351;52.284;9.160;2023-05-07T08:50:21;10.30;99.90
24207;DHT22;12351;52.284;9.160;2023-05-07T08:53:09;10.40;99.90
24207;DHT22;12351;52.284;9.160;2023-05-07T08:55:56;10.40;99.90
24207;DHT22;12351;52.284;9.160;2023-05-07T08:58:44;10.40;99.90
24207;DHT22;12351;52.284;9.160;2023-05-07T09:01:33;10.50;99.90
24207;DHT22;12351;52.284;9.160;2023-05-07T09:04:22;10.50;99.90
24207;DHT22;12351;52.284;9.160;2023-05-07T09:07:09;10.50;99.90
24207;DHT22;12351;52.284;9.160;2023-05-07T09:10:00;10.50;99.90
24207;DHT22;12351;52.284;9.160;2023-05-07T09:12:48;10.50;99.90
24207;DHT22;12351;52.284;9.160;2023-05-07T09:15:37;10.50;99.90
24207;DHT22;12351;52.284;9.160;2023-05-07T09:18:25;10.60;99.90
24207;DHT22;12351;52.284;9.160;2023-05-07T09:21:16;10.60;99.90
24207;DHT22;12351;52.284;9.160;2023-05-07T09:24:07;10.60;99.90
24207;DHT22;12351;52.284;9.160;2023-05-07T09:26:58;10.60;99.90
24207;DHT22;12351;52.284;9.160;2023-05-07T09:29:46;10.60;99.90
24207;DHT22;12351;52.284;9.160;2023-05-07T09:32:35;10.70;99.90
24207;DHT22;12351;52.284;9.160;2023-05-07T09:35:27;10.80;99.90
24207;DHT22;12351;52.284;9.160;2023-05-07T09:38:16;10.80;99.90
24207;DHT22;12351;52.284;9.160;2023-05-07T09:41:09;10.90;99.90
24207;DHT22;12351;52.284;9.160;2023-05-07T09:43:56;10.90;99.80
24207;DHT22;12351;52.284;9.160;2023-05-07T09:46:50;11.00;99.90
24207;DHT22;12351;52.284;9.160;2023-05-07T09:49:38;11.00;99.90
24207;DHT22;12351;52.284;9.160;2023-05-07T09:52:28;11.10;83.30
24207;DHT22;12351;52.284;9.160;2023-05-07T09:55:17;11.20;45.30
24207;DHT22;12351;52.284;9.160;2023-05-07T09:58:07;11.20;28.40
24207;DHT22;12351;52.284;9.160;2023-05-07T10:01:00;11.20;39.40
24207;DHT22;12351;52.284;9.160;2023-05-07T10:03:50;11.20;18.70
24207;DHT22;12351;52.284;9.160;2023-05-07T10:06:38;11.20;17.40
24207;DHT22;12351;52.284;9.160;2023-05-07T10:09:27;11.30;14.00
24207;DHT22;12351;52.284;9.160;2023-05-07T10:12:17;11.40;1.00
24207;DHT22;12351;52.284;9.160;2023-05-07T10:15:06;11.50;1.00
24207;DHT22;12351;52.284;9.160;2023-05-07T10:17:56;11.50;1.00
24207;DHT22;12351;52.284;9.160;2023-05-07T10:20:46;11.60;1.00
24207;DHT22;12351;52.284;9.160;2023-05-07T10:23:36;11.60;1.00
24207;DHT22;12351;52.284;9.160;2023-05-07T10:26:27;11.60;1.00
24207;DHT22;12351;52.284;9.160;2023-05-07T10:29:21;11.70;1.00
24207;DHT22;12351;52.284;9.160;2023-05-07T10:34:59;11.80;1.00
24207;DHT22;12351;52.284;9.160;2023-05-07T10:37:46;11.80;1.00
24207;DHT22;12351;52.284;9.160;2023-05-07T10:40:37;11.90;1.00
24207;DHT22;12351;52.284;9.160;2023-05-07T10:43:37;12.00;1.00
24207;DHT22;12351;52.284;9.160;2023-05-07T10:46:17;11.90;1.00
24207;DHT22;12351;52.284;9.160;2023-05-07T10:49:08;12.00;1.00
24207;DHT22;12351;52.284;9.160;2023-05-07T10:55:22;12.00;1.00
24207;DHT22;12351;52.284;9.160;2023-05-07T10:57:38;12.00;1.00
24207;DHT22;12351;52.284;9.160;2023-05-07T11:03:17;12.20;1.00
24207;DHT22;12351;52.284;9.160;2023-05-07T11:08:56;12.40;1.00
24207;DHT22;12351;52.284;9.160;2023-05-07T11:11:48;12.50;1.00
24207;DHT22;12351;52.284;9.160;2023-05-07T11:17:29;12.60;1.00
24207;DHT22;12351;52.284;9.160;2023-05-07T11:20:17;12.80;1.00
24207;DHT22;12351;52.284;9.160;2023-05-07T11:23:06;12.90;1.00
24207;DHT22;12351;52.284;9.160;2023-05-07T11:28:45;13.30;1.00
24207;DHT22;12351;52.284;9.160;2023-05-07T11:31:35;13.30;1.00
24207;DHT22;12351;52.284;9.160;2023-05-07T11:34:24;13.50;1.00
24207;DHT22;12351;52.284;9.160;2023-05-07T11:37:17;13.60;1.00
24207;DHT22;12351;52.284;9.160;2023-05-07T11:40:06;13.70;1.00
24207;DHT22;12351;52.284;9.160;2023-05-07T11:42:54;13.80;1.00
24207;DHT22;12351;52.284;9.160;2023-05-07T11:45:43;13.90;1.00
24207;DHT22;12351;52.284;9.160;2023-05-07T11:48:32;14.10;99.90
24207;DHT22;12351;52.284;9.160;2023-05-07T11:51:24;14.10;99.90
24207;DHT22;12351;52.284;9.160;2023-05-07T11:54:14;13.90;1.00
24207;DHT22;12351;52.284;9.160;2023-05-07T11:57:02;14.00;99.90
24207;DHT22;12351;52.284;9.160;2023-05-07T12:02:41;14.20;99.90
24207;DHT22;12351;52.284;9.160;2023-05-07T12:05:30;14.30;99.90
24207;DHT22;12351;52.284;9.160;2023-05-07T12:08:18;14.30;99.90
24207;DHT22;12351;52.284;9.160;2023-05-07T12:11:09;14.50;1.00
24207;DHT22;12351;52.284;9.160;2023-05-07T12:13:57;14.60;99.90
24207;DHT22;12351;52.284;9.160;2023-05-07T12:16:45;14.70;99.90
24207;DHT22;12351;52.284;9.160;2023-05-07T12:19:34;14.70;99.90
24207;DHT22;12351;52.284;9.160;2023-05-07T12:22:21;14.70;2.70
24207;DHT22;12351;52.284;9.160;2023-05-07T12:25:08;14.70;1.00
24207;DHT22;12351;52.284;9.160;2023-05-07T12:27:59;14.90;1.00
24207;DHT22;12351;52.284;9.160;2023-05-07T12:30:47;14.80;10.80
24207;DHT22;12351;52.284;9.160;2023-05-07T12:33:37;14.70;8.60
24207;DHT22;12351;52.284;9.160;2023-05-07T12:36:26;14.90;1.00
24207;DHT22;12351;52.284;9.160;2023-05-07T12:39:15;14.90;1.00
24207;DHT22;12351;52.284;9.160;2023-05-07T12:42:02;15.00;1.00
24207;DHT22;12351;52.284;9.160;2023-05-07T12:44:50;15.40;1.00
24207;DHT22;12351;52.284;9.160;2023-05-07T12:47:38;15.20;1.00
24207;DHT22;12351;52.284;9.160;2023-05-07T12:50:31;15.00;1.00
24207;DHT22;12351;52.284;9.160;2023-05-07T12:53:21;15.00;1.00
24207;DHT22;12351;52.284;9.160;2023-05-07T12:56:08;15.00;1.00
24207;DHT22;12351;52.284;9.160;2023-05-07T12:58:58;15.10;1.00
24207;DHT22;12351;52.284;9.160;2023-05-07T13:01:47;15.40;99.90
24207;DHT22;12351;52.284;9.160;2023-05-07T13:04:35;15.30;99.90
24207;DHT22;12351;52.284;9.160;2023-05-07T13:07:25;15.30;99.90
24207;DHT22;12351;52.284;9.160;2023-05-07T13:10:14;15.00;99.90
24207;DHT22;12351;52.284;9.160;2023-05-07T13:13:03;15.20;1.00
24207;DHT22;12351;52.284;9.160;2023-05-07T13:15:53;15.40;99.90
24207;DHT22;12351;52.284;9.160;2023-05-07T13:18:45;15.50;1.00
24207;DHT22;12351;52.284;9.160;2023-05-07T13:21:35;15.60;99.90
24207;DHT22;12351;52.284;9.160;2023-05-07T13:24:23;15.70;1.00
24207;DHT22;12351;52.284;9.160;2023-05-07T13:27:11;15.50;1.00
24207;DHT22;12351;52.284;9.160;2023-05-07T13:29:58;15.70;99.90
24207;DHT22;12351;52.284;9.160;2023-05-07T13:32:46;15.80;1.00
24207;DHT22;12351;52.284;9.160;2023-05-07T13:35:35;15.70;99.90
24207;DHT22;12351;52.284;9.160;2023-05-07T13:38:24;15.70;9.60
24207;DHT22;12351;52.284;9.160;2023-05-07T13:41:14;15.80;99.90
24207;DHT22;12351;52.284;9.160;2023-05-07T13:44:03;15.70;1.00
24207;DHT22;12351;52.284;9.160;2023-05-07T13:46:51;15.80;1.00
24207;DHT22;12351;52.284;9.160;2023-05-07T13:49:38;15.80;1.00
24207;DHT22;12351;52.284;9.160;2023-05-07T13:52:25;16.00;1.00
24207;DHT22;12351;52.284;9.160;2023-05-07T13:55:12;16.20;1.00
24207;DHT22;12351;52.284;9.160;2023-05-07T13:58:03;16.40;99.90
24207;DHT22;12351;52.284;9.160;2023-05-07T14:00:49;16.10;99.90
24207;DHT22;12351;52.284;9.160;2023-05-07T14:03:36;16.30;1.00
24207;DHT22;12351;52.284;9.160;2023-05-07T14:06:26;16.10;1.00
24207;DHT22;12351;52.284;9.160;2023-05-07T14:09:14;15.90;99.90
24207;DHT22;12351;52.284;9.160;2023-05-07T14:12:01;16.20;99.90
24207;DHT22;12351;52.284;9.160;2023-05-07T14:14:49;16.30;99.90
24207;DHT22;12351;52.284;9.160;2023-05-07T14:17:39;16.30;99.90
24207;DHT22;12351;52.284;9.160;2023-05-07T14:20:27;16.30;1.00
24207;DHT22;12351;52.284;9.160;2023-05-07T14:23:16;16.40;99.90
24207;DHT22;12351;52.284;9.160;2023-05-07T14:26:07;16.40;1.00
24207;DHT22;12351;52.284;9.160;2023-05-07T14:28:54;16.30;1.00
24207;DHT22;12351;52.284;9.160;2023-05-07T14:31:46;16.40;1.00
24207;DHT22;12351;52.284;9.160;2023-05-07T14:34:33;16.50;1.00
24207;DHT22;12351;52.284;9.160;2023-05-07T14:37:23;16.60;1.00
24207;DHT22;12351;52.284;9.160;2023-05-07T14:40:10;16.50;1.00
24207;DHT22;12351;52.284;9.160;2023-05-07T14:43:00;16.60;99.90
24207;DHT22;12351;52.284;9.160;2023-05-07T14:45:48;16.90;1.00
24207;DHT22;12351;52.284;9.160;2023-05-07T14:48:36;17.10;99.90
24207;DHT22;12351;52.284;9.160;2023-05-07T14:51:25;16.60;99.90
24207;DHT22;12351;52.284;9.160;2023-05-07T14:54:14;16.40;1.00
24207;DHT22;12351;52.284;9.160;2023-05-07T14:57:03;16.80;99.90
24207;DHT22;12351;52.284;9.160;2023-05-07T14:59:53;17.20;99.90
24207;DHT22;12351;52.284;9.160;2023-05-07T15:02:42;17.00;99.90
24207;DHT22;12351;52.284;9.160;2023-05-07T15:05:32;16.90;99.90
24207;DHT22;12351;52.284;9.160;2023-05-07T15:08:22;17.00;99.90
24207;DHT22;12351;52.284;9.160;2023-05-07T15:11:10;17.10;1.00
24207;DHT22;12351;52.284;9.160;2023-05-07T15:14:01;17.10;32.00
24207;DHT22;12351;52.284;9.160;2023-05-07T15:16:48;16.70;99.90
24207;DHT22;12351;52.284;9.160;2023-05-07T15:19:36;16.60;1.00
24207;DHT22;12351;52.284;9.160;2023-05-07T15:22:28;16.80;1.00
24207;DHT22;12351;52.284;9.160;2023-05-07T15:25:16;16.70;5.20
24207;DHT22;12351;52.284;9.160;2023-05-07T15:28:06;16.90;1.00
24207;DHT22;12351;52.284;9.160;2023-05-07T15:30:56;16.90;1.00
24207;DHT22;12351;52.284;9.160;2023-05-07T15:33:45;16.70;1.00
24207;DHT22;12351;52.284;9.160;2023-05-07T15:36:33;16.30;99.90
24207;DHT22;12351;52.284;9.160;2023-05-07T15:39:23;16.40;1.00
24207;DHT22;12351;52.284;9.160;2023-05-07T15:42:11;16.40;33.00
24207;DHT22;12351;52.284;9.160;2023-05-07T15:45:01;16.40;1.00
24207;DHT22;12351;52.284;9.160;2023-05-07T15:47:50;16.30;36.30
24207;DHT22;12351;52.284;9.160;2023-05-07T15:50:40;16.10;99.90
24207;DHT22;12351;52.284;9.160;2023-05-07T15:53:29;16.10;99.90
24207;DHT22;12351;52.284;9.160;2023-05-07T15:56:16;16.20;99.90
24207;DHT22;12351;52.284;9.160;2023-05-07T15:59:05;16.30;99.90
24207;DHT22;12351;52.284;9.160;2023-05-07T16:01:54;15.90;99.90
24207;DHT22;12351;52.284;9.160;2023-05-07T16:04:41;15.60;1.00
24207;DHT22;12351;52.284;9.160;2023-05-07T16:07:30;15.60;99.90
24207;DHT22;12351;52.284;9.160;2023-05-07T16:10:18;15.60;1.00
24207;DHT22;12351;52.284;9.160;2023-05-07T16:13:07;15.80;99.90
24207;DHT22;12351;52.284;9.160;2023-05-07T16:15:56;15.90;11.90
24207;DHT22;12351;52.284;9.160;2023-05-07T16:18:45;15.80;1.00
24207;DHT22;12351;52.284;9.160;2023-05-07T16:21:34;15.50;99.90
24207;DHT22;12351;52.284;9.160;2023-05-07T16:24:21;15.60;1.00
24207;DHT22;12351;52.284;9.160;2023-05-07T16:27:10;15.50;99.90
24207;DHT22;12351;52.284;9.160;2023-05-07T16:29:58;15.60;1.00
24207;DHT22;12351;52.284;9.160;2023-05-07T16:32:48;15.80;1.00
24207;DHT22;12351;52.284;9.160;2023-05-07T16:35:39;15.50;99.90
24207;DHT22;12351;52.284;9.160;2023-05-07T16:38:30;15.40;1.00
24207;DHT22;12351;52.284;9.160;2023-05-07T16:41:19;15.20;1.00
24207;DHT22;12351;52.284;9.160;2023-05-07T16:44:10;15.20;1.00
24207;DHT22;12351;52.284;9.160;2023-05-07T16:46:57;15.40;27.50
24207;DHT22;12351;52.284;9.160;2023-05-07T16:49:47;15.40;1.00
24207;DHT22;12351;52.284;9.160;2023-05-07T16:52:38;15.50;1.00
24207;DHT22;12351;52.284;9.160;2023-05-07T16:55:25;15.30;1.00
24207;DHT22;12351;52.284;9.160;2023-05-07T16:58:12;15.00;1.00
24207;DHT22;12351;52.284;9.160;2023-05-07T17:01:01;14.80;99.90
24207;DHT22;12351;52.284;9.160;2023-05-07T17:03:50;14.90;2.00
24207;DHT22;12351;52.284;9.160;2023-05-07T17:06:38;15.00;1.00
24207;DHT22;12351;52.284;9.160;2023-05-07T17:09:27;15.10;1.00
24207;DHT22;12351;52.284;9.160;2023-05-07T17:12:15;14.90;1.00
24207;DHT22;12351;52.284;9.160;2023-05-07T17:15:06;14.90;99.90
24207;DHT22;12351;52.284;9.160;2023-05-07T17:17:56;14.90;1.00
24207;DHT22;12351;52.284;9.160;2023-05-07T17:23:34;15.00;1.00
24207;DHT22;12351;52.284;9.160;2023-05-07T17:26:22;14.70;1.00
24207;DHT22;12351;52.284;9.160;2023-05-07T17:29:15;14.60;99.90
24207;DHT22;12351;52.284;9.160;2023-05-07T17:32:04;14.80;99.90
24207;DHT22;12351;52.284;9.160;2023-05-07T17:34:55;14.40;1.00
24207;DHT22;12351;52.284;9.160;2023-05-07T17:37:44;14.50;99.90
24207;DHT22;12351;52.284;9.160;2023-05-07T17:40:34;14.50;1.00
24207;DHT22;12351;52.284;9.160;2023-05-07T17:43:23;14.60;1.00
24207;DHT22;12351;52.284;9.160;2023-05-07T17:46:12;14.30;99.90
24207;DHT22;12351;52.284;9.160;2023-05-07T17:49:00;14.00;99.90
24207;DHT22;12351;52.284;9.160;2023-05-07T17:51:50;14.20;1.00
24207;DHT22;12351;52.284;9.160;2023-05-07T17:54:38;14.20;1.00
24207;DHT22;12351;52.284;9.160;2023-05-07T17:57:28;13.90;99.90
24207;DHT22;12351;52.284;9.160;2023-05-07T18:00:17;13.90;1.00
24207;DHT22;12351;52.284;9.160;2023-05-07T18:03:06;13.90;1.00
24207;DHT22;12351;52.284;9.160;2023-05-07T18:05:57;13.70;1.00
24207;DHT22;12351;52.284;9.160;2023-05-07T18:08:46;13.50;1.00
24207;DHT22;12351;52.284;9.160;2023-05-07T18:11:33;13.70;1.00
24207;DHT22;12351;52.284;9.160;2023-05-07T18:14:25;13.70;1.00
24207;DHT22;12351;52.284;9.160;2023-05-07T18:17:13;13.30;99.90
24207;DHT22;12351;52.284;9.160;2023-05-07T18:20:01;13.50;99.90
24207;DHT22;12351;52.284;9.160;2023-05-07T18:22:50;13.50;99.90